createdAt,value
2023-03-04T00:04:41.868Z,4.4
2023-03-04T00:10:34.425Z,4.4
2023-03-04T00:16:14.448Z,4.4
2023-03-04T00:22:07.879Z,4.3
2023-03-04T00:27:45.247Z,4.3
2023-03-04T00:33:37.855Z,4.3
2023-03-04T00:39:30.854Z,4.3
2023-03-04T00:45:08.127Z,4.3
2023-03-04T00:50:29.985Z,4.3
2023-03-04T00:56:21.569Z,4.2
2023-03-04T01:01:59.086Z,4.3
2023-03-04T01:07:21.566Z,4.2
2023-03-04T01:12:58.926Z,4.1
2023-03-04T01:18:36.407Z,4.1
2023-03-04T01:24:13.245Z,4.1
2023-03-04T01:29:50.171Z,4.1
2023-03-04T01:35:27.683Z,4.1
2023-03-04T01:40:49.294Z,4.1
2023-03-04T01:46:14.161Z,4.1
2023-03-04T01:51:36.951Z,4.1
2023-03-04T01:56:58.425Z,4.1
2023-03-04T02:02:20.514Z,4.1
2023-03-04T02:07:42.518Z,4.1
2023-03-04T02:13:20.148Z,4
2023-03-04T02:18:27.530Z,4
2023-03-04T02:23:49.206Z,3.9
2023-03-04T02:29:26.382Z,3.9
2023-03-04T02:35:03.954Z,3.8
2023-03-04T02:40:41.243Z,3.7
2023-03-04T02:46:18.022Z,3.6
2023-03-04T02:51:54.542Z,3.6
2023-03-04T02:57:31.934Z,3.4
2023-03-04T03:02:54.088Z,3.3
2023-03-04T03:08:31.889Z,3.1
2023-03-04T03:14:09.752Z,3
2023-03-04T03:19:32.755Z,2.8
2023-03-04T03:25:10.403Z,2.7
2023-03-04T03:30:47.300Z,2.5
2023-03-04T03:36:25.257Z,2.4
2023-03-04T03:42:02.635Z,2.3
2023-03-04T03:47:24.640Z,2.2
2023-03-04T03:52:46.319Z,2.1
2023-03-04T03:58:24.746Z,1.9
2023-03-04T04:04:02.789Z,1.8
2023-03-04T04:09:40.141Z,1.6
2023-03-04T04:15:17.270Z,1.5
2023-03-04T04:20:42.597Z,1.3
2023-03-04T04:26:20.142Z,1.1
2023-03-04T04:31:57.399Z,0.9
2023-03-04T04:37:03.505Z,0.8
2023-03-04T04:42:41.107Z,0.6
2023-03-04T04:48:03.914Z,0.4
2023-03-04T04:53:57.220Z,0.4
2023-03-04T04:59:34.073Z,0.3
2023-03-04T05:05:11.479Z,0.1
2023-03-04T05:10:48.880Z,0
2023-03-04T05:16:41.651Z,-0.1
2023-03-04T05:22:18.573Z,0.1
2023-03-04T05:27:55.206Z,0.3
2023-03-04T05:33:32.653Z,0.6
2023-03-04T05:39:11.088Z,0.9
2023-03-04T05:44:47.669Z,1.3
2023-03-04T05:50:40.464Z,1.9
2023-03-04T05:56:33.183Z,3.1
2023-03-04T06:02:25.777Z,4.3
2023-03-04T06:08:03.515Z,5.3
2023-03-04T06:13:56.006Z,6.1
2023-03-04T06:19:48.640Z,6.8
2023-03-04T06:25:40.742Z,7.8
2023-03-04T06:31:20.463Z,8.8
2023-03-04T06:37:13.572Z,9.8
2023-03-04T06:43:06.753Z,10.9
2023-03-04T06:48:44.855Z,12.1
2023-03-04T06:54:37.684Z,12.9
2023-03-04T07:00:29.538Z,13
2023-03-04T07:06:21.883Z,12.9
2023-03-04T07:12:14.013Z,12.9
2023-03-04T07:18:06.819Z,12.9
2023-03-04T07:24:00.612Z,13
2023-03-04T07:29:52.478Z,13.4
2023-03-04T07:35:45.118Z,14.1
2023-03-04T07:41:38.021Z,15.5
2023-03-04T07:47:30.918Z,16.6
2023-03-04T07:53:26.412Z,17.7
2023-03-04T07:59:18.946Z,19.2
2023-03-04T08:05:11.093Z,19.9
2023-03-04T08:11:03.440Z,19.9
2023-03-04T08:16:56.758Z,19.8
2023-03-04T08:22:34.868Z,19.4
2023-03-04T08:28:12.748Z,19.1
2023-03-04T08:34:07.839Z,19.1
2023-03-04T08:39:48.183Z,19.4
2023-03-04T08:45:41.163Z,20.4
2023-03-04T08:51:34.729Z,21.3
2023-03-04T08:57:27.081Z,21.8
2023-03-04T09:03:19.987Z,21.9
2023-03-04T09:09:12.549Z,22.2
2023-03-04T09:15:14.714Z,22.7
2023-03-04T09:21:08.741Z,23.6
2023-03-04T09:27:01.316Z,24.3
2023-03-04T09:32:54.295Z,25.2
2023-03-04T09:38:46.979Z,25.9
2023-03-04T09:44:24.222Z,26.9
2023-03-04T09:50:19.102Z,28.7
2023-03-04T09:56:16.452Z,30.6
2023-03-04T10:02:10.559Z,31.9
2023-03-04T10:08:02.773Z,32.6
2023-03-04T10:13:54.985Z,33.6
2023-03-04T10:19:48.871Z,34.9
2023-03-04T10:25:44.395Z,35
2023-03-04T10:31:21.830Z,34.8
2023-03-04T10:37:14.897Z,35.6
2023-03-04T10:43:07.747Z,37.9
2023-03-04T10:49:01.096Z,42.1
2023-03-04T10:54:53.289Z,43.5
2023-03-04T11:00:32.525Z,42.3
2023-03-04T11:06:25.775Z,41.4
2023-03-04T11:12:28.209Z,40.6
2023-03-04T11:18:19.791Z,40.9
2023-03-04T11:24:27.999Z,41.9
2023-03-04T11:30:21.274Z,41.6
2023-03-04T11:36:15.110Z,41.8
2023-03-04T11:42:08.662Z,40.6
2023-03-04T11:48:18.403Z,39.8
2023-03-04T11:54:11.114Z,38.9
2023-03-04T12:00:04.649Z,38.7
2023-03-04T12:05:58.595Z,38.4
2023-03-04T12:11:36.300Z,39.3
2023-03-04T12:17:31.510Z,41
2023-03-04T12:23:23.868Z,42.9
2023-03-04T12:29:02.258Z,42.8
2023-03-04T12:34:59.029Z,41.8
2023-03-04T12:40:37.928Z,40.4
2023-03-04T12:46:14.215Z,38.9
2023-03-04T12:52:09.240Z,37.1
2023-03-04T12:58:02.502Z,35
2023-03-04T13:03:40.900Z,33
2023-03-04T13:09:18.680Z,31.3
2023-03-04T13:15:14.547Z,29.5
2023-03-04T13:20:53.366Z,28.3
2023-03-04T13:26:47.761Z,27.1
2023-03-04T13:32:42.659Z,26.4
2023-03-04T13:38:38.914Z,25.9
2023-03-04T13:44:16.253Z,25.4
2023-03-04T13:50:10.417Z,24.5
2023-03-04T13:56:16.537Z,24
2023-03-04T14:02:12.570Z,23.3
2023-03-04T14:08:07.023Z,22.6
2023-03-04T14:13:44.334Z,22.3
2023-03-04T14:19:36.727Z,21.8
2023-03-04T14:25:30.847Z,21.2
2023-03-04T14:31:17.718Z,20.9
2023-03-04T14:37:11.052Z,20.4
2023-03-04T14:43:03.472Z,20.3
2023-03-04T14:49:08.015Z,20
2023-03-04T14:55:00.363Z,19.9
2023-03-04T15:00:52.693Z,19.6
2023-03-04T15:06:46.314Z,19.4
2023-03-04T15:12:39.303Z,19.1
2023-03-04T15:18:32.597Z,18.8
2023-03-04T15:24:09.117Z,18.4
2023-03-04T15:30:03.865Z,17.9
2023-03-04T15:35:57.030Z,17.5
2023-03-04T15:41:47.972Z,16.9
2023-03-04T15:47:28.906Z,16.5
2023-03-04T15:53:07.722Z,15.9
2023-03-04T15:58:59.718Z,15.4
2023-03-04T16:04:52.632Z,14.9
2023-03-04T16:10:45.060Z,14.4
2023-03-04T16:16:37.529Z,13.8
2023-03-04T16:22:30.162Z,13.3
2023-03-04T16:28:22.629Z,12.6
2023-03-04T16:34:02.073Z,12.2
2023-03-04T16:39:55.096Z,11.6
2023-03-04T16:45:32.540Z,11.1
2023-03-04T16:51:26.567Z,10.6
2023-03-04T16:57:19.819Z,10.1
2023-03-04T17:03:12.892Z,9.8
2023-03-04T17:09:07.499Z,9.4
2023-03-04T17:14:44.662Z,9.1
2023-03-04T17:20:21.743Z,8.8
2023-03-04T17:26:13.619Z,8.5
2023-03-04T17:31:51.108Z,8.3
2023-03-04T17:37:44.000Z,8
2023-03-04T17:43:20.497Z,7.9
2023-03-04T17:48:58.205Z,7.7
2023-03-04T17:54:49.828Z,7.6
2023-03-04T18:00:26.400Z,7.4
2023-03-04T18:06:19.406Z,7.3
2023-03-04T18:11:56.398Z,7.2
2023-03-04T18:17:48.545Z,7.1
2023-03-04T18:23:10.073Z,7.1
2023-03-04T18:28:47.356Z,7
2023-03-04T18:34:36.024Z,6.9
2023-03-04T18:40:13.635Z,6.9
2023-03-04T18:46:06.734Z,6.8
2023-03-04T18:51:59.208Z,6.8
2023-03-04T18:57:52.209Z,6.8
2023-03-04T19:03:44.680Z,6.7
2023-03-04T19:09:36.219Z,6.7
2023-03-04T19:15:15.680Z,6.7
2023-03-04T19:20:36.910Z,6.6
2023-03-04T19:26:28.961Z,6.6
2023-03-04T19:32:06.884Z,6.6
2023-03-04T19:37:43.702Z,6.6
2023-03-04T19:42:49.348Z,6.6
2023-03-04T19:48:42.857Z,6.6
2023-03-04T19:54:19.965Z,6.6
2023-03-04T19:59:57.284Z,6.6
2023-03-04T20:05:34.927Z,6.6
2023-03-04T20:10:56.655Z,6.6
2023-03-04T20:16:14.147Z,6.6
2023-03-04T20:21:51.220Z,6.6
2023-03-04T20:27:13.749Z,6.6
2023-03-04T20:32:50.963Z,6.5
2023-03-04T20:38:29.214Z,6.6
2023-03-04T20:44:17.583Z,6.5
2023-03-04T20:50:09.565Z,6.5
2023-03-04T20:55:46.331Z,6.4
2023-03-04T21:00:37.567Z,6.4
2023-03-04T21:06:29.854Z,6.4
2023-03-04T21:12:23.024Z,6.4
2023-03-04T21:18:15.807Z,6.4
2023-03-04T21:24:12.183Z,6.3
2023-03-04T21:30:04.849Z,6.3
2023-03-04T21:35:56.972Z,6.3
2023-03-04T21:41:33.855Z,6.2
2023-03-04T21:47:10.135Z,6.2
2023-03-04T21:53:05.393Z,6.1
2023-03-04T21:58:26.552Z,6.1
2023-03-04T22:04:05.421Z,6.1
2023-03-04T22:09:57.531Z,6.1
2023-03-04T22:15:19.471Z,6
2023-03-04T22:20:53.284Z,6
2023-03-04T22:26:14.908Z,5.9
2023-03-04T22:31:52.437Z,5.9
2023-03-04T22:37:00.186Z,5.9
2023-03-04T22:42:21.308Z,5.8
2023-03-04T22:47:43.403Z,5.8
2023-03-04T22:53:20.582Z,5.8
2023-03-04T22:58:58.151Z,5.8
2023-03-04T23:04:50.602Z,5.8
2023-03-04T23:10:42.663Z,5.7
2023-03-04T23:16:35.737Z,5.6
2023-03-04T23:22:27.913Z,5.6
2023-03-04T23:28:05.752Z,5.6
2023-03-04T23:33:59.568Z,5.6
2023-03-04T23:39:51.674Z,5.5
2023-03-04T23:45:44.178Z,5.4
2023-03-04T23:51:22.067Z,5.4
2023-03-04T23:57:14.455Z,5.4
